createdAt,value
2017-07-20T00:00:13.227Z,3.70
2017-07-20T00:02:40.777Z,3.90
2017-07-20T00:05:08.317Z,3.80
2017-07-20T00:07:35.869Z,3.60
2017-07-20T00:10:04.173Z,3.30
2017-07-20T00:12:31.734Z,3.17
2017-07-20T00:14:59.281Z,4.03
2017-07-20T00:17:26.833Z,4.20
2017-07-20T00:19:54.390Z,4.20
2017-07-20T00:22:21.930Z,3.43
2017-07-20T00:24:50.259Z,3.50
2017-07-20T00:27:17.792Z,4.50
2017-07-20T00:29:45.343Z,2.97
2017-07-20T00:32:12.905Z,3.17
2017-07-20T00:34:40.449Z,3.50
2017-07-20T00:37:08.769Z,3.37
2017-07-20T00:39:36.309Z,3.37
2017-07-20T00:42:03.852Z,3.50
2017-07-20T00:44:32.177Z,3.60
2017-07-20T00:46:59.721Z,2.80
2017-07-20T00:49:27.278Z,3.60
2017-07-20T00:51:54.820Z,3.47
2017-07-20T00:54:22.366Z,3.30
2017-07-20T00:56:50.693Z,3.70
2017-07-20T00:59:18.224Z,3.63
2017-07-20T01:01:45.790Z,4.27
2017-07-20T01:04:13.332Z,3.87
2017-07-20T01:06:40.898Z,3.87
2017-07-20T01:09:08.473Z,3.57
2017-07-20T01:11:36.171Z,3.80
2017-07-20T01:14:04.517Z,3.87
2017-07-20T01:16:32.057Z,4.07
2017-07-20T01:18:59.621Z,4.73
2017-07-20T01:21:27.157Z,3.80
2017-07-20T01:23:54.717Z,3.60
2017-07-20T01:26:23.026Z,4.20
2017-07-20T01:28:50.589Z,4.10
2017-07-20T01:31:18.405Z,4.37
2017-07-20T01:33:45.965Z,4.30
2017-07-20T01:36:14.274Z,3.83
2017-07-20T01:38:41.833Z,3.70
2017-07-20T01:41:09.380Z,4.10
2017-07-20T01:43:36.937Z,3.50
2017-07-20T01:46:04.494Z,4.77
2017-07-20T01:48:32.057Z,4.90
2017-07-20T01:50:59.600Z,4.50
2017-07-20T01:53:27.942Z,4.73
2017-07-20T01:55:55.496Z,4.90
2017-07-20T01:58:23.036Z,4.67
2017-07-20T02:00:50.594Z,4.00
2017-07-20T02:03:18.137Z,5.07
2017-07-20T02:05:45.698Z,4.53
2017-07-20T02:08:13.237Z,4.57
2017-07-20T02:10:41.552Z,4.80
2017-07-20T02:13:09.097Z,4.80
2017-07-20T02:15:36.656Z,4.80
2017-07-20T02:18:04.193Z,4.50
2017-07-20T02:20:32.521Z,4.80
2017-07-20T02:23:00.072Z,4.27
2017-07-20T02:25:27.636Z,4.70
2017-07-20T02:27:55.181Z,4.97
2017-07-20T02:30:22.747Z,4.60
2017-07-20T02:32:50.295Z,4.10
2017-07-20T02:35:17.846Z,4.17
2017-07-20T02:37:45.438Z,4.93
2017-07-20T02:40:12.963Z,4.87
2017-07-20T02:42:40.480Z,4.57
2017-07-20T02:45:08.820Z,4.37
2017-07-20T02:47:36.319Z,4.47
2017-07-20T02:50:03.847Z,5.27
2017-07-20T02:52:31.354Z,4.53
2017-07-20T02:54:59.618Z,4.43
2017-07-20T02:57:27.135Z,4.70
2017-07-20T02:59:54.639Z,4.40
2017-07-20T03:02:22.927Z,5.03
2017-07-20T03:04:50.433Z,4.67
2017-07-20T03:07:17.951Z,4.00
2017-07-20T03:09:45.450Z,4.80
2017-07-20T03:12:12.975Z,5.30
2017-07-20T03:14:40.483Z,5.00
2017-07-20T03:17:07.998Z,4.33
2017-07-20T03:19:35.499Z,4.63
2017-07-20T03:22:14.821Z,4.80
2017-07-20T03:24:42.322Z,4.43
2017-07-20T03:27:10.598Z,5.10
2017-07-20T03:29:38.875Z,5.47
2017-07-20T03:32:07.158Z,4.30
2017-07-20T03:34:34.664Z,4.03
2017-07-20T03:37:02.183Z,4.97
2017-07-20T03:39:29.708Z,4.70
2017-07-20T03:41:57.236Z,4.17
2017-07-20T03:44:24.744Z,4.40
2017-07-20T03:46:52.272Z,4.30
2017-07-20T03:49:19.779Z,5.43
2017-07-20T03:51:47.276Z,4.50
2017-07-20T03:54:14.787Z,4.77
2017-07-20T03:56:42.284Z,5.50
2017-07-20T03:59:09.804Z,4.50
2017-07-20T04:01:37.299Z,5.30
2017-07-20T04:04:04.819Z,4.70
2017-07-20T04:06:32.320Z,4.67
2017-07-20T04:08:59.843Z,4.50
2017-07-20T04:11:27.364Z,5.10
2017-07-20T04:13:54.884Z,4.50
2017-07-20T04:16:22.392Z,4.87
2017-07-20T04:18:50.680Z,5.10
2017-07-20T04:21:18.188Z,4.90
2017-07-20T04:23:45.709Z,4.10
2017-07-20T04:26:13.215Z,5.00
2017-07-20T04:28:40.736Z,4.37
2017-07-20T04:31:08.239Z,4.73
2017-07-20T04:33:35.771Z,5.17
2017-07-20T04:36:03.275Z,5.10
2017-07-20T04:38:31.555Z,4.50
2017-07-20T04:40:59.836Z,5.00
2017-07-20T04:43:27.363Z,4.60
2017-07-20T04:45:54.872Z,5.30
2017-07-20T04:48:22.375Z,4.70
2017-07-20T04:50:49.913Z,4.63
2017-07-20T04:53:17.427Z,5.70
2017-07-20T04:55:44.963Z,5.53
2017-07-20T04:58:12.472Z,5.83
2017-07-20T05:00:39.991Z,4.30
2017-07-20T05:03:08.264Z,5.17
2017-07-20T05:05:36.556Z,5.83
2017-07-20T05:08:04.068Z,5.00
2017-07-20T05:10:31.598Z,5.40
2017-07-20T05:12:59.108Z,5.23
2017-07-20T05:15:26.627Z,5.70
2017-07-20T05:17:54.131Z,4.80
2017-07-20T05:20:22.423Z,5.13
2017-07-20T05:22:49.926Z,5.65
2017-07-20T05:25:17.444Z,5.57
2017-07-20T05:27:44.955Z,5.93
2017-07-20T05:30:12.464Z,6.33
2017-07-20T05:32:39.983Z,5.87
2017-07-20T05:35:07.487Z,5.90
2017-07-20T05:37:35.007Z,5.40
2017-07-20T05:40:02.514Z,5.30
2017-07-20T05:42:30.023Z,4.93
2017-07-20T05:44:57.539Z,5.30
2017-07-20T05:47:25.044Z,4.70
2017-07-20T05:49:52.559Z,4.63
2017-07-20T05:52:20.066Z,5.20
2017-07-20T05:54:48.351Z,5.60
2017-07-20T05:57:16.650Z,5.60
2017-07-20T05:59:44.161Z,4.37
2017-07-20T06:02:11.679Z,4.97
2017-07-20T06:04:39.187Z,5.07
2017-07-20T06:07:06.688Z,5.30
2017-07-20T06:09:34.224Z,5.27
2017-07-20T06:12:01.720Z,4.77
2017-07-20T06:14:29.234Z,4.80
2017-07-20T06:16:56.735Z,4.60
2017-07-20T06:19:24.242Z,4.60
2017-07-20T06:21:53.351Z,5.20
2017-07-20T06:24:20.859Z,5.37
2017-07-20T06:26:48.374Z,5.90
2017-07-20T06:29:15.875Z,5.17
2017-07-20T06:31:43.395Z,5.07
2017-07-20T06:34:10.904Z,4.90
2017-07-20T06:36:38.411Z,4.90
2017-07-20T06:39:05.931Z,5.20
2017-07-20T06:41:33.427Z,5.50
2017-07-20T06:44:00.943Z,4.50
2017-07-20T06:46:28.438Z,5.23
2017-07-20T06:48:55.983Z,5.00
2017-07-20T06:51:24.247Z,5.70
2017-07-20T06:53:51.756Z,5.27
2017-07-20T06:56:19.271Z,5.27
2017-07-20T06:58:46.779Z,4.97
2017-07-20T07:01:14.295Z,5.30
2017-07-20T07:03:41.836Z,4.83
2017-07-20T07:06:10.139Z,4.90
2017-07-20T07:08:37.668Z,4.70
2017-07-20T07:11:05.172Z,4.97
2017-07-20T07:13:32.683Z,5.10
2017-07-20T07:16:00.197Z,4.23
2017-07-20T07:18:27.696Z,4.50
2017-07-20T07:20:55.224Z,4.30
2017-07-20T07:23:22.719Z,3.77
2017-07-20T07:25:50.224Z,4.03
2017-07-20T07:28:17.743Z,4.50
2017-07-20T07:30:46.006Z,3.93
2017-07-20T07:33:13.531Z,4.20
2017-07-20T07:35:41.031Z,4.10
2017-07-20T07:38:09.299Z,4.00
2017-07-20T07:40:36.822Z,3.70
2017-07-20T07:43:04.319Z,4.07
2017-07-20T07:45:31.839Z,3.87
2017-07-20T07:47:59.346Z,3.70
2017-07-20T07:50:27.615Z,4.07
2017-07-20T07:52:55.904Z,4.10
2017-07-20T07:55:24.167Z,4.00
2017-07-20T07:57:51.692Z,3.73
2017-07-20T08:00:19.199Z,4.23
2017-07-20T08:02:47.467Z,4.50
2017-07-20T08:05:15.751Z,3.67
2017-07-20T08:07:44.017Z,3.90
2017-07-20T08:10:12.303Z,4.30
2017-07-20T08:12:39.914Z,3.67
2017-07-20T08:15:08.245Z,3.83
2017-07-20T08:17:36.527Z,3.40
2017-07-20T08:20:04.040Z,3.87
2017-07-20T08:22:31.567Z,4.07
2017-07-20T08:24:59.080Z,4.20
2017-07-20T08:27:27.673Z,3.87
2017-07-20T08:29:55.931Z,4.10
2017-07-20T08:32:23.439Z,3.60
2017-07-20T08:34:50.962Z,3.50
2017-07-20T08:37:19.237Z,3.90
2017-07-20T08:39:47.527Z,3.80
2017-07-20T08:42:15.024Z,4.13
2017-07-20T08:44:42.551Z,3.20
2017-07-20T08:47:10.060Z,3.33
2017-07-20T08:49:37.582Z,3.60
2017-07-20T08:52:05.078Z,4.40
2017-07-20T08:54:32.571Z,3.43
2017-07-20T08:57:00.851Z,3.20
2017-07-20T08:59:28.355Z,4.07
2017-07-20T09:01:55.881Z,4.20
2017-07-20T09:04:23.384Z,3.53
2017-07-20T09:06:50.894Z,4.10
2017-07-20T09:09:18.386Z,3.50
2017-07-20T09:11:45.931Z,4.00
2017-07-20T09:14:13.422Z,3.90
2017-07-20T09:16:40.919Z,3.50
2017-07-20T09:19:08.430Z,4.23
2017-07-20T09:21:35.922Z,3.53
2017-07-20T09:24:04.204Z,4.13
2017-07-20T09:26:32.466Z,4.10
2017-07-20T09:29:00.753Z,4.07
2017-07-20T09:31:29.023Z,4.20
2017-07-20T09:33:57.307Z,3.90
2017-07-20T09:36:24.803Z,4.00
2017-07-20T09:38:52.343Z,4.17
2017-07-20T09:41:19.911Z,4.60
2017-07-20T09:43:47.518Z,3.73
2017-07-20T09:46:15.824Z,4.27
2017-07-20T09:48:43.323Z,3.37
2017-07-20T09:51:10.834Z,4.33
2017-07-20T09:53:39.094Z,3.70
2017-07-20T09:56:06.606Z,3.93
2017-07-20T09:58:34.111Z,4.10
2017-07-20T10:01:01.622Z,3.43
2017-07-20T10:03:29.115Z,3.80
2017-07-20T10:05:56.626Z,3.20
2017-07-20T10:08:24.130Z,3.27
2017-07-20T10:10:51.645Z,3.37
2017-07-20T10:13:19.147Z,3.00
2017-07-20T10:15:46.647Z,2.90
2017-07-20T10:18:14.168Z,2.97
2017-07-20T10:20:41.666Z,3.60
2017-07-20T10:23:09.179Z,3.63
2017-07-20T10:25:36.676Z,3.30
2017-07-20T10:28:04.189Z,3.10
2017-07-20T10:30:31.686Z,2.90
2017-07-20T10:32:59.210Z,3.77
2017-07-20T10:35:26.707Z,3.30
2017-07-20T10:37:54.213Z,2.90
2017-07-20T10:40:21.723Z,3.50
2017-07-20T10:42:49.218Z,3.40
2017-07-20T10:45:16.734Z,3.40
2017-07-20T10:47:44.999Z,3.73
2017-07-20T10:50:13.279Z,3.20
2017-07-20T10:52:41.551Z,3.00
2017-07-20T10:55:09.831Z,3.80
2017-07-20T10:57:38.091Z,3.43
2017-07-20T11:00:06.411Z,3.27
2017-07-20T11:02:33.915Z,3.40
2017-07-20T11:05:01.424Z,3.40
2017-07-20T11:07:28.938Z,3.90
2017-07-20T11:09:57.015Z,4.17
2017-07-20T11:12:25.303Z,3.70
2017-07-20T11:14:53.563Z,3.13
2017-07-20T11:17:21.079Z,3.50
2017-07-20T11:19:48.574Z,3.53
2017-07-20T11:22:16.083Z,4.00
2017-07-20T11:24:43.583Z,3.70
2017-07-20T11:27:11.103Z,3.73
2017-07-20T11:29:38.598Z,3.60
2017-07-20T11:32:06.091Z,3.10
2017-07-20T11:34:34.379Z,3.40
2017-07-20T11:37:01.875Z,3.63
2017-07-20T11:39:29.387Z,3.80
2017-07-20T11:41:56.887Z,3.50
2017-07-20T11:44:24.407Z,3.63
2017-07-20T11:46:51.906Z,2.97
2017-07-20T11:49:19.453Z,3.00
2017-07-20T11:51:46.947Z,3.03
2017-07-20T11:54:14.451Z,3.30
2017-07-20T11:56:41.974Z,3.30
2017-07-20T11:59:09.467Z,3.23
2017-07-20T12:01:36.983Z,3.60
2017-07-20T12:04:04.478Z,3.20
2017-07-20T12:09:01.638Z,3.70
2017-07-20T12:11:29.157Z,2.93
2017-07-20T12:13:56.659Z,2.33
2017-07-20T12:16:24.179Z,2.50
2017-07-20T12:18:51.685Z,2.53
2017-07-20T12:21:19.183Z,2.50
2017-07-20T12:23:46.770Z,2.90
2017-07-20T12:26:15.035Z,3.33
2017-07-20T12:28:42.550Z,2.93
2017-07-20T12:31:10.040Z,3.10
2017-07-20T12:33:37.552Z,4.10
2017-07-20T12:36:05.051Z,2.60
2017-07-20T12:38:32.563Z,3.40
2017-07-20T12:41:00.055Z,3.20
2017-07-20T12:43:27.554Z,3.00
2017-07-20T12:45:55.839Z,2.60
2017-07-20T12:48:24.113Z,3.20
2017-07-20T12:50:52.390Z,3.30
2017-07-20T12:53:20.650Z,3.30
2017-07-20T12:55:48.172Z,3.33
2017-07-20T12:58:15.671Z,3.20
2017-07-20T13:00:43.191Z,3.90
2017-07-20T13:03:10.685Z,4.20
2017-07-20T13:05:38.191Z,4.00
2017-07-20T13:08:05.706Z,3.70
2017-07-20T13:10:33.211Z,4.30
2017-07-20T13:13:00.722Z,3.70
2017-07-20T13:15:28.233Z,4.33
2017-07-20T13:17:55.751Z,3.60
2017-07-20T13:20:23.250Z,4.70
2017-07-20T13:22:50.758Z,4.43
2017-07-20T13:25:19.022Z,4.00
2017-07-20T13:27:46.530Z,4.20
2017-07-20T13:30:14.026Z,4.57
2017-07-20T13:32:41.523Z,5.00
2017-07-20T13:35:09.078Z,4.47
2017-07-20T13:37:36.597Z,5.77
2017-07-20T13:40:04.120Z,4.77
2017-07-20T13:42:31.626Z,4.30
2017-07-20T13:44:59.147Z,5.30
2017-07-20T13:47:26.752Z,4.93
2017-07-20T13:49:55.047Z,5.93
2017-07-20T13:52:23.306Z,5.50
2017-07-20T13:54:50.831Z,5.70
2017-07-20T13:57:18.335Z,5.67
2017-07-20T13:59:46.598Z,5.90
2017-07-20T14:02:14.870Z,5.60
2017-07-20T14:04:42.367Z,5.30
2017-07-20T14:07:09.891Z,6.37
2017-07-20T14:09:37.391Z,5.70
2017-07-20T14:12:04.902Z,5.43
2017-07-20T14:14:32.400Z,6.33
2017-07-20T14:16:59.919Z,6.67
2017-07-20T14:19:27.414Z,6.53
2017-07-20T14:21:54.927Z,6.40
2017-07-20T14:24:22.422Z,5.97
2017-07-20T14:26:49.947Z,6.67
2017-07-20T14:29:17.443Z,6.27
2017-07-20T14:31:44.942Z,6.87
2017-07-20T14:34:12.459Z,6.50
2017-07-20T14:36:39.958Z,5.63
2017-07-20T14:39:07.471Z,7.80
2017-07-20T14:41:34.975Z,7.13
2017-07-20T14:44:02.491Z,7.53
2017-07-20T14:46:30.000Z,6.50
2017-07-20T14:48:57.510Z,6.97
2017-07-20T14:51:25.006Z,7.83
2017-07-20T14:53:52.518Z,7.43
2017-07-20T14:56:20.014Z,7.10
2017-07-20T14:58:47.530Z,6.90
2017-07-20T15:01:15.026Z,7.20
2017-07-20T15:03:42.532Z,8.23
2017-07-20T15:06:10.063Z,7.03
2017-07-20T15:08:37.574Z,7.10
2017-07-20T15:11:05.086Z,7.50
2017-07-20T15:13:32.592Z,7.83
2017-07-20T15:16:00.114Z,7.53
2017-07-20T15:18:28.378Z,7.90
2017-07-20T15:20:55.902Z,7.90
2017-07-20T15:23:23.400Z,7.53
2017-07-20T15:25:50.898Z,6.80
2017-07-20T15:28:18.425Z,9.00
2017-07-20T15:30:45.922Z,7.83
2017-07-20T15:33:13.446Z,8.53
2017-07-20T15:35:40.939Z,6.60
2017-07-20T15:38:08.450Z,6.30
2017-07-20T15:40:35.946Z,5.53
2017-07-20T15:43:03.466Z,7.20
2017-07-20T15:45:30.959Z,5.67
2017-07-20T15:47:58.459Z,6.27
2017-07-20T15:50:25.974Z,5.70
2017-07-20T15:52:53.466Z,6.17
2017-07-20T15:55:20.979Z,6.20
2017-07-20T15:57:48.479Z,6.50
2017-07-20T16:00:15.994Z,5.87
2017-07-20T16:02:44.254Z,5.70
2017-07-20T16:05:12.539Z,5.70
2017-07-20T16:07:40.039Z,5.20
2017-07-20T16:10:07.550Z,5.80
2017-07-20T16:12:35.045Z,5.63
2017-07-20T16:15:02.575Z,5.90
2017-07-20T16:17:30.095Z,6.27
2017-07-20T16:19:57.622Z,7.40
2017-07-20T16:22:25.123Z,6.20
2017-07-20T16:24:52.620Z,6.43
2017-07-20T16:27:20.134Z,7.57
2017-07-20T16:29:47.634Z,6.70
2017-07-20T16:32:15.150Z,7.00
2017-07-20T16:34:42.674Z,6.17
2017-07-20T16:37:10.210Z,6.30
2017-07-20T16:39:37.711Z,5.47
2017-07-20T16:42:05.230Z,5.77
2017-07-20T16:44:32.723Z,5.37
2017-07-20T16:47:00.222Z,5.43
2017-07-20T16:49:27.747Z,5.50
2017-07-20T16:51:55.240Z,6.07
2017-07-20T16:54:22.760Z,5.57
2017-07-20T16:56:50.260Z,5.93
2017-07-20T16:59:17.787Z,5.10
2017-07-20T17:01:45.287Z,6.03
2017-07-20T17:04:13.714Z,5.80
2017-07-20T17:06:41.214Z,5.97
2017-07-20T17:09:09.507Z,6.40
2017-07-20T17:11:37.011Z,7.30
2017-07-20T17:14:04.508Z,8.40
2017-07-20T17:16:32.815Z,8.13
2017-07-20T17:19:00.314Z,7.77
2017-07-20T17:21:27.835Z,9.33
2017-07-20T17:23:55.334Z,8.80
2017-07-20T17:26:22.859Z,8.80
2017-07-20T17:28:50.358Z,9.40
2017-07-20T17:31:17.875Z,8.40
2017-07-20T17:33:45.370Z,8.10
2017-07-20T17:36:12.884Z,8.07
2017-07-20T17:38:40.389Z,8.47
2017-07-20T17:41:07.915Z,8.50
2017-07-20T17:43:35.402Z,7.77
2017-07-20T17:46:02.906Z,7.90
2017-07-20T17:48:30.418Z,7.07
2017-07-20T17:50:57.911Z,7.40
2017-07-20T17:53:25.426Z,7.50
2017-07-20T17:55:52.928Z,7.97
2017-07-20T17:58:20.455Z,7.60
2017-07-20T18:00:47.951Z,7.80
2017-07-20T18:03:15.507Z,8.20
2017-07-20T18:05:43.022Z,8.10
2017-07-20T18:08:10.533Z,7.77
2017-07-20T18:10:38.055Z,7.50
2017-07-20T18:13:06.330Z,8.70
2017-07-20T18:15:33.849Z,7.50
2017-07-20T18:18:01.347Z,7.60
2017-07-20T18:20:28.861Z,8.00
2017-07-20T18:22:56.363Z,7.33
2017-07-20T18:25:23.883Z,6.90
2017-07-20T18:27:51.387Z,8.20
2017-07-20T18:30:19.646Z,7.73
2017-07-20T18:32:47.175Z,8.40
2017-07-20T18:35:14.675Z,8.70
2017-07-20T18:37:42.959Z,9.97
2017-07-20T18:40:11.222Z,8.20
2017-07-20T18:42:38.738Z,9.17
2017-07-20T18:45:06.239Z,8.20
2017-07-20T18:47:33.760Z,8.47
2017-07-20T18:50:01.262Z,8.80
2017-07-20T18:52:28.791Z,8.67
2017-07-20T18:54:56.291Z,8.00
2017-07-20T18:57:23.788Z,8.80
2017-07-20T18:59:51.306Z,8.30
2017-07-20T19:02:18.803Z,8.93
2017-07-20T19:04:46.319Z,8.23
2017-07-20T19:07:13.823Z,8.97
2017-07-20T19:09:41.357Z,9.30
2017-07-20T19:12:08.863Z,9.07
2017-07-20T19:14:36.378Z,9.80
2017-07-20T19:17:03.882Z,9.47
2017-07-20T19:19:31.407Z,9.17
2017-07-20T19:21:58.907Z,9.93
2017-07-20T19:24:26.404Z,9.97
2017-07-20T19:26:53.922Z,10.63
2017-07-20T19:29:21.431Z,9.80
2017-07-20T19:31:48.952Z,10.83
2017-07-20T19:34:16.479Z,10.50
2017-07-20T19:36:44.011Z,11.27
2017-07-20T19:39:11.514Z,11.67
2017-07-20T19:41:39.039Z,11.20
2017-07-20T19:44:06.534Z,11.87
2017-07-20T19:46:34.827Z,11.47
2017-07-20T19:49:03.099Z,11.30
2017-07-20T19:51:31.367Z,10.13
2017-07-20T19:53:58.919Z,10.07
2017-07-20T19:56:26.419Z,9.97
2017-07-20T19:58:53.943Z,10.70
2017-07-20T20:01:21.454Z,10.77
2017-07-20T20:03:48.978Z,10.17
2017-07-20T20:06:16.482Z,9.37
2017-07-20T20:08:44.003Z,9.73
2017-07-20T20:11:11.511Z,8.60
2017-07-20T20:13:39.012Z,8.40
2017-07-20T20:16:06.531Z,8.90
2017-07-20T20:18:34.035Z,9.80
2017-07-20T20:21:01.556Z,9.27
2017-07-20T20:23:29.059Z,9.57
2017-07-20T20:25:56.579Z,9.37
2017-07-20T20:28:24.840Z,9.10
2017-07-20T20:30:52.346Z,9.30
2017-07-20T20:33:19.887Z,9.97
2017-07-20T20:35:47.398Z,10.43
2017-07-20T20:38:14.911Z,10.57
2017-07-20T20:40:42.411Z,9.63
2017-07-20T20:43:09.939Z,10.00
2017-07-20T20:45:37.442Z,9.10
2017-07-20T20:48:04.942Z,9.23
2017-07-20T20:50:32.458Z,9.13
2017-07-20T20:52:59.950Z,8.90
2017-07-20T20:55:27.466Z,8.27
2017-07-20T20:57:54.962Z,9.83
2017-07-20T21:00:23.246Z,8.70
2017-07-20T21:02:50.747Z,7.93
2017-07-20T21:05:18.263Z,8.43
2017-07-20T21:07:45.764Z,8.70
2017-07-20T21:10:13.278Z,8.57
2017-07-20T21:12:40.794Z,8.80
2017-07-20T21:15:08.303Z,8.73
2017-07-20T21:17:35.840Z,8.33
2017-07-20T21:20:04.106Z,7.77
2017-07-20T21:22:31.630Z,8.00
2017-07-20T21:24:59.131Z,7.83
2017-07-20T21:27:26.659Z,7.70
2017-07-20T21:29:54.202Z,8.17
2017-07-20T21:32:21.712Z,7.33
2017-07-20T21:34:49.222Z,8.20
2017-07-20T21:37:16.718Z,8.00
2017-07-20T21:39:44.234Z,7.53
2017-07-20T21:42:11.731Z,7.47
2017-07-20T21:44:39.254Z,8.23
2017-07-20T21:47:06.752Z,7.70
2017-07-20T21:49:35.024Z,7.73
2017-07-20T21:52:02.539Z,7.83
2017-07-20T21:54:30.035Z,7.23
2017-07-20T21:56:57.546Z,7.27
2017-07-20T21:59:25.039Z,7.70
2017-07-20T22:01:52.559Z,7.67
2017-07-20T22:04:20.063Z,8.37
2017-07-20T22:06:47.559Z,8.33
2017-07-20T22:09:15.078Z,7.97
2017-07-20T22:11:42.578Z,7.33
2017-07-20T22:14:10.095Z,7.83
2017-07-20T22:16:37.605Z,8.07
2017-07-20T22:19:05.121Z,7.60
2017-07-20T22:21:32.620Z,7.63
2017-07-20T22:24:00.119Z,8.23
2017-07-20T22:26:27.631Z,7.60
2017-07-20T22:28:55.142Z,7.20
2017-07-20T22:31:22.652Z,6.93
2017-07-20T22:33:50.151Z,7.63
2017-07-20T22:36:17.685Z,7.07
2017-07-20T22:38:45.189Z,6.40
2017-07-20T22:41:13.500Z,6.43
2017-07-20T22:43:41.010Z,6.80
2017-07-20T22:46:08.506Z,6.43
2017-07-20T22:48:36.023Z,6.60
2017-07-20T22:51:03.521Z,7.70
2017-07-20T22:53:31.022Z,6.93
2017-07-20T22:55:58.534Z,7.77
2017-07-20T22:58:26.041Z,6.83
2017-07-20T23:00:53.583Z,6.40
2017-07-20T23:03:21.087Z,6.50
2017-07-20T23:05:49.352Z,6.50
2017-07-20T23:08:16.874Z,6.63
2017-07-20T23:10:44.366Z,6.13
2017-07-20T23:13:11.890Z,7.07
2017-07-20T23:15:39.382Z,6.23
2017-07-20T23:18:06.883Z,6.90
2017-07-20T23:20:34.394Z,6.40
2017-07-20T23:23:01.890Z,5.87
2017-07-20T23:25:29.410Z,6.60
2017-07-20T23:27:56.898Z,5.67
2017-07-20T23:30:25.162Z,5.50
2017-07-20T23:32:53.438Z,5.97
2017-07-20T23:35:21.699Z,7.10
2017-07-20T23:37:49.215Z,5.30
2017-07-20T23:40:16.717Z,5.40
2017-07-20T23:42:44.215Z,6.67
2017-07-20T23:45:11.731Z,6.20
2017-07-20T23:47:39.227Z,5.13
2017-07-20T23:50:06.742Z,6.10
2017-07-20T23:52:34.251Z,5.77
2017-07-20T23:55:01.753Z,6.13
2017-07-20T23:57:29.264Z,5.50
2017-07-20T23:59:56.758Z,6.07
